sensor_id;sensor_type;location;lat;lon;timestamp;P1;durP1;ratioP1;P2;durP2;ratioP2
21593;SDS011;10959;51.328;7.322;2022-10-31T00:01:53;9.97;;;5.27;;
21593;SDS011;10959;51.328;7.322;2022-10-31T00:04:19;10.17;;;5.00;;
21593;SDS011;10959;51.328;7.322;2022-10-31T00:06:46;7.00;;;5.37;;
21593;SDS011;10959;51.328;7.322;2022-10-31T00:09:12;7.37;;;4.60;;
21593;SDS011;10959;51.328;7.322;2022-10-31T00:11:39;7.23;;;4.53;;
21593;SDS011;10959;51.328;7.322;2022-10-31T00:14:05;7.40;;;4.93;;
21593;SDS011;10959;51.328;7.322;2022-10-31T00:16:32;7.77;;;5.23;;
21593;SDS011;10959;51.328;7.322;2022-10-31T00:19:00;7.50;;;4.90;;
21593;SDS011;10959;51.328;7.322;2022-10-31T00:21:28;8.90;;;5.57;;
21593;SDS011;10959;51.328;7.322;2022-10-31T00:23:56;7.07;;;4.80;;
21593;SDS011;10959;51.328;7.322;2022-10-31T00:26:23;7.23;;;4.97;;
21593;SDS011;10959;51.328;7.322;2022-10-31T00:28:50;8.80;;;5.20;;
21593;SDS011;10959;51.328;7.322;2022-10-31T00:31:17;10.07;;;5.10;;
21593;SDS011;10959;51.328;7.322;2022-10-31T00:33:43;8.60;;;5.03;;
21593;SDS011;10959;51.328;7.322;2022-10-31T00:36:12;7.43;;;5.00;;
21593;SDS011;10959;51.328;7.322;2022-10-31T00:38:41;8.03;;;5.47;;
21593;SDS011;10959;51.328;7.322;2022-10-31T00:41:08;8.37;;;5.83;;
21593;SDS011;10959;51.328;7.322;2022-10-31T00:43:35;10.30;;;5.60;;
21593;SDS011;10959;51.328;7.322;2022-10-31T00:46:01;8.77;;;5.20;;
21593;SDS011;10959;51.328;7.322;2022-10-31T00:48:28;7.27;;;5.23;;
21593;SDS011;10959;51.328;7.322;2022-10-31T00:50:55;8.03;;;5.27;;
21593;SDS011;10959;51.328;7.322;2022-10-31T00:53:23;8.07;;;5.20;;
21593;SDS011;10959;51.328;7.322;2022-10-31T00:55:50;6.70;;;5.00;;
21593;SDS011;10959;51.328;7.322;2022-10-31T00:58:16;8.00;;;5.33;;
21593;SDS011;10959;51.328;7.322;2022-10-31T01:00:42;9.20;;;5.53;;
21593;SDS011;10959;51.328;7.322;2022-10-31T01:03:09;11.07;;;6.13;;
21593;SDS011;10959;51.328;7.322;2022-10-31T01:05:35;9.07;;;5.23;;
21593;SDS011;10959;51.328;7.322;2022-10-31T01:08:02;9.97;;;5.90;;
21593;SDS011;10959;51.328;7.322;2022-10-31T01:10:30;10.37;;;5.87;;
21593;SDS011;10959;51.328;7.322;2022-10-31T01:12:57;10.73;;;6.10;;
21593;SDS011;10959;51.328;7.322;2022-10-31T01:15:23;9.33;;;6.17;;
21593;SDS011;10959;51.328;7.322;2022-10-31T01:17:50;7.93;;;6.00;;
21593;SDS011;10959;51.328;7.322;2022-10-31T01:20:16;9.97;;;5.90;;
21593;SDS011;10959;51.328;7.322;2022-10-31T01:22:44;8.63;;;6.20;;
21593;SDS011;10959;51.328;7.322;2022-10-31T01:25:10;11.83;;;6.50;;
21593;SDS011;10959;51.328;7.322;2022-10-31T01:27:38;7.87;;;5.60;;
21593;SDS011;10959;51.328;7.322;2022-10-31T01:30:05;11.13;;;6.13;;
21593;SDS011;10959;51.328;7.322;2022-10-31T01:32:32;7.93;;;5.53;;
21593;SDS011;10959;51.328;7.322;2022-10-31T01:34:58;9.87;;;6.33;;
21593;SDS011;10959;51.328;7.322;2022-10-31T01:37:25;8.33;;;5.47;;
21593;SDS011;10959;51.328;7.322;2022-10-31T01:39:51;7.90;;;4.73;;
21593;SDS011;10959;51.328;7.322;2022-10-31T01:42:19;9.50;;;5.70;;
21593;SDS011;10959;51.328;7.322;2022-10-31T01:44:53;7.10;;;5.50;;
21593;SDS011;10959;51.328;7.322;2022-10-31T01:47:25;9.37;;;5.70;;
21593;SDS011;10959;51.328;7.322;2022-10-31T01:49:59;6.97;;;5.60;;
21593;SDS011;10959;51.328;7.322;2022-10-31T01:52:29;9.53;;;5.60;;
21593;SDS011;10959;51.328;7.322;2022-10-31T01:54:59;9.13;;;5.47;;
21593;SDS011;10959;51.328;7.322;2022-10-31T01:57:29;9.00;;;5.37;;
21593;SDS011;10959;51.328;7.322;2022-10-31T01:59:59;9.63;;;5.43;;
21593;SDS011;10959;51.328;7.322;2022-10-31T02:02:27;10.37;;;5.90;;
21593;SDS011;10959;51.328;7.322;2022-10-31T02:04:56;8.23;;;5.77;;
21593;SDS011;10959;51.328;7.322;2022-10-31T02:07:27;7.97;;;5.33;;
21593;SDS011;10959;51.328;7.322;2022-10-31T02:09:59;12.50;;;5.63;;
21593;SDS011;10959;51.328;7.322;2022-10-31T02:12:28;7.33;;;5.03;;
21593;SDS011;10959;51.328;7.322;2022-10-31T02:14:56;8.17;;;6.20;;
21593;SDS011;10959;51.328;7.322;2022-10-31T02:17:24;10.90;;;5.70;;
21593;SDS011;10959;51.328;7.322;2022-10-31T02:19:51;7.93;;;5.80;;
21593;SDS011;10959;51.328;7.322;2022-10-31T02:22:23;11.40;;;5.93;;
21593;SDS011;10959;51.328;7.322;2022-10-31T02:24:58;7.73;;;6.13;;
21593;SDS011;10959;51.328;7.322;2022-10-31T02:27:46;11.23;;;6.37;;
21593;SDS011;10959;51.328;7.322;2022-10-31T02:30:27;7.60;;;5.90;;
21593;SDS011;10959;51.328;7.322;2022-10-31T02:33:02;9.33;;;5.90;;
21593;SDS011;10959;51.328;7.322;2022-10-31T02:35:47;13.37;;;6.37;;
21593;SDS011;10959;51.328;7.322;2022-10-31T02:38:24;10.67;;;5.40;;
21593;SDS011;10959;51.328;7.322;2022-10-31T02:41:04;11.30;;;6.13;;
21593;SDS011;10959;51.328;7.322;2022-10-31T02:43:40;8.47;;;5.47;;
21593;SDS011;10959;51.328;7.322;2022-10-31T02:46:14;9.50;;;5.50;;
21593;SDS011;10959;51.328;7.322;2022-10-31T02:48:46;8.13;;;5.60;;
21593;SDS011;10959;51.328;7.322;2022-10-31T02:51:15;9.57;;;5.67;;
21593;SDS011;10959;51.328;7.322;2022-10-31T02:53:43;11.07;;;6.20;;
21593;SDS011;10959;51.328;7.322;2022-10-31T02:56:11;8.73;;;5.90;;
21593;SDS011;10959;51.328;7.322;2022-10-31T02:58:40;10.23;;;5.90;;
21593;SDS011;10959;51.328;7.322;2022-10-31T03:01:23;10.83;;;6.43;;
21593;SDS011;10959;51.328;7.322;2022-10-31T03:04:10;8.63;;;6.37;;
21593;SDS011;10959;51.328;7.322;2022-10-31T03:06:45;9.27;;;6.03;;
21593;SDS011;10959;51.328;7.322;2022-10-31T03:09:21;9.07;;;6.17;;
21593;SDS011;10959;51.328;7.322;2022-10-31T03:11:52;8.33;;;5.67;;
21593;SDS011;10959;51.328;7.322;2022-10-31T03:14:24;8.80;;;6.00;;
21593;SDS011;10959;51.328;7.322;2022-10-31T03:16:57;8.83;;;5.77;;
21593;SDS011;10959;51.328;7.322;2022-10-31T03:19:29;8.67;;;5.90;;
21593;SDS011;10959;51.328;7.322;2022-10-31T03:22:00;7.77;;;5.23;;
21593;SDS011;10959;51.328;7.322;2022-10-31T03:24:31;7.67;;;5.60;;
21593;SDS011;10959;51.328;7.322;2022-10-31T03:27:03;7.70;;;5.80;;
21593;SDS011;10959;51.328;7.322;2022-10-31T03:29:34;10.23;;;6.03;;
21593;SDS011;10959;51.328;7.322;2022-10-31T03:32:03;7.83;;;5.90;;
21593;SDS011;10959;51.328;7.322;2022-10-31T03:34:34;7.37;;;5.40;;
21593;SDS011;10959;51.328;7.322;2022-10-31T03:37:03;10.50;;;5.93;;
21593;SDS011;10959;51.328;7.322;2022-10-31T03:39:33;8.80;;;5.40;;
21593;SDS011;10959;51.328;7.322;2022-10-31T03:42:03;8.30;;;5.83;;
21593;SDS011;10959;51.328;7.322;2022-10-31T03:44:33;9.00;;;5.53;;
21593;SDS011;10959;51.328;7.322;2022-10-31T03:47:01;8.27;;;5.40;;
21593;SDS011;10959;51.328;7.322;2022-10-31T03:49:29;9.90;;;5.30;;
21593;SDS011;10959;51.328;7.322;2022-10-31T03:51:59;9.57;;;5.80;;
21593;SDS011;10959;51.328;7.322;2022-10-31T03:54:32;9.40;;;5.50;;
21593;SDS011;10959;51.328;7.322;2022-10-31T03:57:05;9.57;;;5.80;;
21593;SDS011;10959;51.328;7.322;2022-10-31T03:59:36;7.53;;;5.47;;
21593;SDS011;10959;51.328;7.322;2022-10-31T04:02:07;10.20;;;5.60;;
21593;SDS011;10959;51.328;7.322;2022-10-31T04:04:38;10.20;;;5.87;;
21593;SDS011;10959;51.328;7.322;2022-10-31T04:07:07;11.43;;;7.03;;
21593;SDS011;10959;51.328;7.322;2022-10-31T04:09:36;9.47;;;5.83;;
21593;SDS011;10959;51.328;7.322;2022-10-31T04:12:06;8.53;;;6.07;;
21593;SDS011;10959;51.328;7.322;2022-10-31T04:14:40;10.53;;;6.23;;
21593;SDS011;10959;51.328;7.322;2022-10-31T04:17:09;11.97;;;7.13;;
21593;SDS011;10959;51.328;7.322;2022-10-31T04:19:39;8.70;;;6.50;;
21593;SDS011;10959;51.328;7.322;2022-10-31T04:22:05;12.90;;;6.30;;
21593;SDS011;10959;51.328;7.322;2022-10-31T04:24:33;8.43;;;6.37;;
21593;SDS011;10959;51.328;7.322;2022-10-31T04:27:00;8.80;;;6.03;;
21593;SDS011;10959;51.328;7.322;2022-10-31T04:29:26;8.87;;;6.37;;
21593;SDS011;10959;51.328;7.322;2022-10-31T04:31:53;10.77;;;6.60;;
21593;SDS011;10959;51.328;7.322;2022-10-31T04:34:19;9.33;;;6.90;;
21593;SDS011;10959;51.328;7.322;2022-10-31T04:36:45;12.10;;;6.87;;
21593;SDS011;10959;51.328;7.322;2022-10-31T04:39:13;9.83;;;5.70;;
21593;SDS011;10959;51.328;7.322;2022-10-31T04:41:40;9.03;;;5.70;;
21593;SDS011;10959;51.328;7.322;2022-10-31T04:44:06;10.37;;;6.97;;
21593;SDS011;10959;51.328;7.322;2022-10-31T04:46:33;8.57;;;6.07;;
21593;SDS011;10959;51.328;7.322;2022-10-31T04:48:59;13.00;;;7.30;;
21593;SDS011;10959;51.328;7.322;2022-10-31T04:51:25;9.63;;;6.00;;
21593;SDS011;10959;51.328;7.322;2022-10-31T04:53:52;10.53;;;6.30;;
21593;SDS011;10959;51.328;7.322;2022-10-31T04:56:20;8.53;;;6.10;;
21593;SDS011;10959;51.328;7.322;2022-10-31T04:58:46;11.27;;;6.90;;
21593;SDS011;10959;51.328;7.322;2022-10-31T05:01:12;10.07;;;7.43;;
21593;SDS011;10959;51.328;7.322;2022-10-31T05:03:39;10.77;;;6.97;;
21593;SDS011;10959;51.328;7.322;2022-10-31T05:06:05;12.37;;;7.47;;
21593;SDS011;10959;51.328;7.322;2022-10-31T05:08:32;9.83;;;7.33;;
21593;SDS011;10959;51.328;7.322;2022-10-31T05:10:59;10.30;;;8.00;;
21593;SDS011;10959;51.328;7.322;2022-10-31T05:13:27;9.60;;;6.77;;
21593;SDS011;10959;51.328;7.322;2022-10-31T05:15:53;11.10;;;7.33;;
21593;SDS011;10959;51.328;7.322;2022-10-31T05:18:20;10.90;;;8.07;;
21593;SDS011;10959;51.328;7.322;2022-10-31T05:20:47;11.63;;;7.10;;
21593;SDS011;10959;51.328;7.322;2022-10-31T05:23:13;12.50;;;8.93;;
21593;SDS011;10959;51.328;7.322;2022-10-31T05:25:40;10.80;;;8.47;;
21593;SDS011;10959;51.328;7.322;2022-10-31T05:28:07;10.73;;;7.70;;
21593;SDS011;10959;51.328;7.322;2022-10-31T05:30:35;8.10;;;7.20;;
21593;SDS011;10959;51.328;7.322;2022-10-31T05:33:01;10.17;;;7.03;;
21593;SDS011;10959;51.328;7.322;2022-10-31T05:35:29;12.43;;;6.60;;
21593;SDS011;10959;51.328;7.322;2022-10-31T05:37:57;12.33;;;7.30;;
21593;SDS011;10959;51.328;7.322;2022-10-31T05:40:24;13.10;;;7.77;;
21593;SDS011;10959;51.328;7.322;2022-10-31T05:42:51;12.60;;;7.20;;
21593;SDS011;10959;51.328;7.322;2022-10-31T05:45:19;8.93;;;7.73;;
21593;SDS011;10959;51.328;7.322;2022-10-31T05:47:51;15.23;;;8.70;;
21593;SDS011;10959;51.328;7.322;2022-10-31T05:50:18;11.33;;;7.90;;
21593;SDS011;10959;51.328;7.322;2022-10-31T05:52:44;13.70;;;8.87;;
21593;SDS011;10959;51.328;7.322;2022-10-31T05:55:11;12.47;;;7.93;;
21593;SDS011;10959;51.328;7.322;2022-10-31T05:57:37;10.97;;;7.73;;
21593;SDS011;10959;51.328;7.322;2022-10-31T06:00:04;9.20;;;7.67;;
21593;SDS011;10959;51.328;7.322;2022-10-31T06:02:32;13.17;;;8.33;;
21593;SDS011;10959;51.328;7.322;2022-10-31T06:05:00;10.20;;;7.67;;
21593;SDS011;10959;51.328;7.322;2022-10-31T06:07:31;12.27;;;8.27;;
21593;SDS011;10959;51.328;7.322;2022-10-31T06:09:58;13.20;;;8.07;;
21593;SDS011;10959;51.328;7.322;2022-10-31T06:12:25;12.80;;;8.87;;
21593;SDS011;10959;51.328;7.322;2022-10-31T06:14:51;13.27;;;7.57;;
21593;SDS011;10959;51.328;7.322;2022-10-31T06:17:18;14.90;;;8.00;;
21593;SDS011;10959;51.328;7.322;2022-10-31T06:19:44;11.53;;;8.30;;
21593;SDS011;10959;51.328;7.322;2022-10-31T06:22:12;12.10;;;7.93;;
21593;SDS011;10959;51.328;7.322;2022-10-31T06:24:39;11.53;;;9.17;;
21593;SDS011;10959;51.328;7.322;2022-10-31T06:27:05;9.57;;;6.93;;
21593;SDS011;10959;51.328;7.322;2022-10-31T06:29:32;10.50;;;7.17;;
21593;SDS011;10959;51.328;7.322;2022-10-31T06:31:58;11.80;;;7.23;;
21593;SDS011;10959;51.328;7.322;2022-10-31T06:34:25;8.83;;;7.33;;
21593;SDS011;10959;51.328;7.322;2022-10-31T06:36:51;12.87;;;7.83;;
21593;SDS011;10959;51.328;7.322;2022-10-31T06:39:19;7.97;;;6.60;;
21593;SDS011;10959;51.328;7.322;2022-10-31T06:41:46;12.53;;;8.10;;
21593;SDS011;10959;51.328;7.322;2022-10-31T06:44:13;10.77;;;7.00;;
21593;SDS011;10959;51.328;7.322;2022-10-31T06:46:40;12.23;;;8.40;;
21593;SDS011;10959;51.328;7.322;2022-10-31T06:49:06;10.00;;;8.20;;
21593;SDS011;10959;51.328;7.322;2022-10-31T06:51:32;10.63;;;7.97;;
21593;SDS011;10959;51.328;7.322;2022-10-31T06:53:59;11.07;;;7.93;;
21593;SDS011;10959;51.328;7.322;2022-10-31T06:56:27;11.67;;;8.77;;
21593;SDS011;10959;51.328;7.322;2022-10-31T06:58:53;11.20;;;7.63;;
21593;SDS011;10959;51.328;7.322;2022-10-31T07:01:20;10.70;;;7.77;;
21593;SDS011;10959;51.328;7.322;2022-10-31T07:03:47;13.23;;;7.93;;
21593;SDS011;10959;51.328;7.322;2022-10-31T07:06:14;12.27;;;9.23;;
21593;SDS011;10959;51.328;7.322;2022-10-31T07:08:40;16.57;;;11.23;;
21593;SDS011;10959;51.328;7.322;2022-10-31T07:11:06;11.90;;;9.90;;
21593;SDS011;10959;51.328;7.322;2022-10-31T07:13:34;14.37;;;9.27;;
21593;SDS011;10959;51.328;7.322;2022-10-31T07:16:02;11.20;;;8.67;;
21593;SDS011;10959;51.328;7.322;2022-10-31T07:18:31;12.30;;;8.60;;
21593;SDS011;10959;51.328;7.322;2022-10-31T07:20:58;13.90;;;9.37;;
21593;SDS011;10959;51.328;7.322;2022-10-31T07:23:25;15.07;;;9.30;;
21593;SDS011;10959;51.328;7.322;2022-10-31T07:25:54;14.20;;;9.07;;
21593;SDS011;10959;51.328;7.322;2022-10-31T07:28:21;13.13;;;8.40;;
21593;SDS011;10959;51.328;7.322;2022-10-31T07:30:50;13.87;;;9.80;;
21593;SDS011;10959;51.328;7.322;2022-10-31T07:33:17;15.50;;;9.50;;
21593;SDS011;10959;51.328;7.322;2022-10-31T07:35:44;12.30;;;8.23;;
21593;SDS011;10959;51.328;7.322;2022-10-31T07:38:11;12.87;;;10.20;;
21593;SDS011;10959;51.328;7.322;2022-10-31T07:40:39;11.07;;;8.80;;
21593;SDS011;10959;51.328;7.322;2022-10-31T07:43:07;12.87;;;9.30;;
21593;SDS011;10959;51.328;7.322;2022-10-31T07:45:34;11.70;;;9.70;;
21593;SDS011;10959;51.328;7.322;2022-10-31T07:48:02;11.80;;;9.57;;
21593;SDS011;10959;51.328;7.322;2022-10-31T07:50:30;14.77;;;9.90;;
21593;SDS011;10959;51.328;7.322;2022-10-31T07:52:59;13.83;;;9.97;;
21593;SDS011;10959;51.328;7.322;2022-10-31T07:55:26;16.60;;;10.33;;
21593;SDS011;10959;51.328;7.322;2022-10-31T07:57:57;15.77;;;9.90;;
21593;SDS011;10959;51.328;7.322;2022-10-31T08:00:24;16.40;;;10.43;;
21593;SDS011;10959;51.328;7.322;2022-10-31T08:02:58;14.97;;;10.50;;
21593;SDS011;10959;51.328;7.322;2022-10-31T08:05:26;15.77;;;9.90;;
21593;SDS011;10959;51.328;7.322;2022-10-31T08:07:53;17.17;;;10.47;;
21593;SDS011;10959;51.328;7.322;2022-10-31T08:10:21;14.10;;;9.97;;
21593;SDS011;10959;51.328;7.322;2022-10-31T08:12:54;14.73;;;9.47;;
21593;SDS011;10959;51.328;7.322;2022-10-31T08:15:21;13.97;;;9.63;;
21593;SDS011;10959;51.328;7.322;2022-10-31T08:17:47;14.97;;;9.37;;
21593;SDS011;10959;51.328;7.322;2022-10-31T08:20:14;17.00;;;9.63;;
21593;SDS011;10959;51.328;7.322;2022-10-31T08:22:42;16.37;;;10.07;;
21593;SDS011;10959;51.328;7.322;2022-10-31T08:25:08;14.90;;;9.77;;
21593;SDS011;10959;51.328;7.322;2022-10-31T08:27:35;17.50;;;10.10;;
21593;SDS011;10959;51.328;7.322;2022-10-31T08:30:01;19.50;;;10.90;;
21593;SDS011;10959;51.328;7.322;2022-10-31T08:32:28;14.00;;;9.87;;
21593;SDS011;10959;51.328;7.322;2022-10-31T08:34:54;11.93;;;9.60;;
21593;SDS011;10959;51.328;7.322;2022-10-31T08:37:21;16.97;;;10.43;;
21593;SDS011;10959;51.328;7.322;2022-10-31T08:39:48;13.07;;;9.80;;
21593;SDS011;10959;51.328;7.322;2022-10-31T08:42:15;15.23;;;9.97;;
21593;SDS011;10959;51.328;7.322;2022-10-31T08:44:41;13.20;;;9.67;;
21593;SDS011;10959;51.328;7.322;2022-10-31T08:47:08;13.03;;;9.60;;
21593;SDS011;10959;51.328;7.322;2022-10-31T08:49:34;14.90;;;10.27;;
21593;SDS011;10959;51.328;7.322;2022-10-31T08:52:00;17.13;;;11.27;;
21593;SDS011;10959;51.328;7.322;2022-10-31T08:54:27;13.93;;;10.37;;
21593;SDS011;10959;51.328;7.322;2022-10-31T08:56:55;14.00;;;10.53;;
21593;SDS011;10959;51.328;7.322;2022-10-31T08:59:22;14.03;;;9.60;;
21593;SDS011;10959;51.328;7.322;2022-10-31T09:01:48;16.70;;;11.40;;
21593;SDS011;10959;51.328;7.322;2022-10-31T09:04:15;18.50;;;12.20;;
21593;SDS011;10959;51.328;7.322;2022-10-31T09:06:41;16.80;;;11.90;;
21593;SDS011;10959;51.328;7.322;2022-10-31T09:09:08;17.53;;;12.50;;
21593;SDS011;10959;51.328;7.322;2022-10-31T09:11:34;15.53;;;11.97;;
21593;SDS011;10959;51.328;7.322;2022-10-31T09:14:02;17.60;;;12.53;;
21593;SDS011;10959;51.328;7.322;2022-10-31T09:16:29;19.70;;;13.37;;
21593;SDS011;10959;51.328;7.322;2022-10-31T09:18:55;17.67;;;12.40;;
21593;SDS011;10959;51.328;7.322;2022-10-31T09:21:21;19.30;;;12.30;;
21593;SDS011;10959;51.328;7.322;2022-10-31T09:23:48;20.67;;;11.80;;
21593;SDS011;10959;51.328;7.322;2022-10-31T09:26:14;15.27;;;11.73;;
21593;SDS011;10959;51.328;7.322;2022-10-31T09:28:41;17.63;;;12.93;;
21593;SDS011;10959;51.328;7.322;2022-10-31T09:31:08;21.53;;;13.10;;
21593;SDS011;10959;51.328;7.322;2022-10-31T09:33:35;17.10;;;13.27;;
21593;SDS011;10959;51.328;7.322;2022-10-31T09:36:02;23.73;;;14.67;;
21593;SDS011;10959;51.328;7.322;2022-10-31T09:38:28;16.47;;;12.70;;
21593;SDS011;10959;51.328;7.322;2022-10-31T09:40:55;16.13;;;11.83;;
21593;SDS011;10959;51.328;7.322;2022-10-31T09:43:33;17.70;;;11.40;;
21593;SDS011;10959;51.328;7.322;2022-10-31T09:46:11;17.70;;;11.40;;
21593;SDS011;10959;51.328;7.322;2022-10-31T09:48:48;18.63;;;12.03;;
21593;SDS011;10959;51.328;7.322;2022-10-31T09:51:30;21.60;;;12.60;;
21593;SDS011;10959;51.328;7.322;2022-10-31T09:53:59;15.63;;;11.43;;
21593;SDS011;10959;51.328;7.322;2022-10-31T09:56:33;17.70;;;10.53;;
21593;SDS011;10959;51.328;7.322;2022-10-31T09:59:01;13.37;;;10.37;;
21593;SDS011;10959;51.328;7.322;2022-10-31T10:01:45;17.73;;;10.73;;
21593;SDS011;10959;51.328;7.322;2022-10-31T10:04:17;20.10;;;11.33;;
21593;SDS011;10959;51.328;7.322;2022-10-31T10:06:56;17.97;;;12.97;;
21593;SDS011;10959;51.328;7.322;2022-10-31T10:09:25;20.90;;;13.57;;
21593;SDS011;10959;51.328;7.322;2022-10-31T10:11:54;19.03;;;14.33;;
21593;SDS011;10959;51.328;7.322;2022-10-31T10:14:40;20.53;;;15.43;;
21593;SDS011;10959;51.328;7.322;2022-10-31T10:17:21;19.27;;;14.27;;
21593;SDS011;10959;51.328;7.322;2022-10-31T10:20:05;19.53;;;13.00;;
21593;SDS011;10959;51.328;7.322;2022-10-31T10:22:42;20.20;;;12.60;;
21593;SDS011;10959;51.328;7.322;2022-10-31T10:25:16;14.33;;;11.10;;
21593;SDS011;10959;51.328;7.322;2022-10-31T10:27:50;20.33;;;11.43;;
21593;SDS011;10959;51.328;7.322;2022-10-31T10:30:26;20.37;;;11.50;;
21593;SDS011;10959;51.328;7.322;2022-10-31T10:33:02;16.70;;;10.47;;
21593;SDS011;10959;51.328;7.322;2022-10-31T10:35:32;14.80;;;10.23;;
21593;SDS011;10959;51.328;7.322;2022-10-31T10:38:01;14.87;;;10.10;;
21593;SDS011;10959;51.328;7.322;2022-10-31T10:40:30;13.17;;;10.30;;
21593;SDS011;10959;51.328;7.322;2022-10-31T10:43:19;17.07;;;11.07;;
21593;SDS011;10959;51.328;7.322;2022-10-31T10:45:49;11.77;;;9.67;;
21593;SDS011;10959;51.328;7.322;2022-10-31T10:48:41;15.63;;;10.70;;
21593;SDS011;10959;51.328;7.322;2022-10-31T10:51:13;14.00;;;9.60;;
21593;SDS011;10959;51.328;7.322;2022-10-31T10:53:46;16.17;;;8.30;;
21593;SDS011;10959;51.328;7.322;2022-10-31T10:56:30;11.57;;;9.37;;
21593;SDS011;10959;51.328;7.322;2022-10-31T10:59:06;16.40;;;9.43;;
21593;SDS011;10959;51.328;7.322;2022-10-31T11:01:36;13.50;;;9.60;;
21593;SDS011;10959;51.328;7.322;2022-10-31T11:04:09;11.73;;;7.60;;
21593;SDS011;10959;51.328;7.322;2022-10-31T11:06:56;11.63;;;7.60;;
21593;SDS011;10959;51.328;7.322;2022-10-31T11:09:23;13.90;;;7.77;;
21593;SDS011;10959;51.328;7.322;2022-10-31T11:11:49;12.23;;;7.27;;
21593;SDS011;10959;51.328;7.322;2022-10-31T11:14:16;10.53;;;6.87;;
21593;SDS011;10959;51.328;7.322;2022-10-31T11:16:46;11.47;;;6.83;;
21593;SDS011;10959;51.328;7.322;2022-10-31T11:19:17;8.63;;;6.60;;
21593;SDS011;10959;51.328;7.322;2022-10-31T11:21:45;13.17;;;6.73;;
21593;SDS011;10959;51.328;7.322;2022-10-31T11:24:14;14.53;;;7.50;;
21593;SDS011;10959;51.328;7.322;2022-10-31T11:26:43;11.47;;;6.97;;
21593;SDS011;10959;51.328;7.322;2022-10-31T11:29:13;10.93;;;6.53;;
21593;SDS011;10959;51.328;7.322;2022-10-31T11:31:41;10.50;;;7.33;;
21593;SDS011;10959;51.328;7.322;2022-10-31T11:34:13;14.90;;;7.63;;
21593;SDS011;10959;51.328;7.322;2022-10-31T11:36:44;11.57;;;6.93;;
21593;SDS011;10959;51.328;7.322;2022-10-31T11:39:16;12.30;;;7.23;;
21593;SDS011;10959;51.328;7.322;2022-10-31T11:41:45;13.00;;;5.70;;
21593;SDS011;10959;51.328;7.322;2022-10-31T11:44:15;7.13;;;5.70;;
21593;SDS011;10959;51.328;7.322;2022-10-31T11:46:46;10.93;;;4.90;;
21593;SDS011;10959;51.328;7.322;2022-10-31T11:49:15;8.60;;;4.23;;
21593;SDS011;10959;51.328;7.322;2022-10-31T11:51:48;7.67;;;4.07;;
21593;SDS011;10959;51.328;7.322;2022-10-31T11:54:21;8.67;;;3.83;;
21593;SDS011;10959;51.328;7.322;2022-10-31T11:56:50;7.03;;;4.00;;
21593;SDS011;10959;51.328;7.322;2022-10-31T11:59:17;7.77;;;4.00;;
21593;SDS011;10959;51.328;7.322;2022-10-31T12:01:49;8.93;;;4.10;;
21593;SDS011;10959;51.328;7.322;2022-10-31T12:04:16;9.27;;;3.83;;
21593;SDS011;10959;51.328;7.322;2022-10-31T12:06:43;8.77;;;4.30;;
21593;SDS011;10959;51.328;7.322;2022-10-31T12:09:26;13.43;;;4.23;;
21593;SDS011;10959;51.328;7.322;2022-10-31T12:11:59;11.17;;;4.60;;
21593;SDS011;10959;51.328;7.322;2022-10-31T12:14:37;8.33;;;4.20;;
21593;SDS011;10959;51.328;7.322;2022-10-31T12:17:13;9.10;;;4.20;;
21593;SDS011;10959;51.328;7.322;2022-10-31T12:19:45;10.83;;;4.37;;
21593;SDS011;10959;51.328;7.322;2022-10-31T12:22:26;7.07;;;3.80;;
21593;SDS011;10959;51.328;7.322;2022-10-31T12:25:08;5.33;;;3.37;;
21593;SDS011;10959;51.328;7.322;2022-10-31T12:27:51;6.60;;;3.67;;
21593;SDS011;10959;51.328;7.322;2022-10-31T12:30:32;6.73;;;3.27;;
21593;SDS011;10959;51.328;7.322;2022-10-31T12:33:12;6.93;;;3.73;;
21593;SDS011;10959;51.328;7.322;2022-10-31T12:35:51;10.43;;;3.57;;
21593;SDS011;10959;51.328;7.322;2022-10-31T12:38:29;7.43;;;3.80;;
21593;SDS011;10959;51.328;7.322;2022-10-31T12:41:13;6.50;;;3.40;;
21593;SDS011;10959;51.328;7.322;2022-10-31T12:43:49;6.53;;;3.73;;
21593;SDS011;10959;51.328;7.322;2022-10-31T12:46:25;8.50;;;3.28;;
21593;SDS011;10959;51.328;7.322;2022-10-31T12:49:05;9.33;;;3.77;;
21593;SDS011;10959;51.328;7.322;2022-10-31T12:51:46;6.87;;;4.03;;
21593;SDS011;10959;51.328;7.322;2022-10-31T12:54:29;6.07;;;3.90;;
21593;SDS011;10959;51.328;7.322;2022-10-31T12:57:11;6.70;;;3.83;;
21593;SDS011;10959;51.328;7.322;2022-10-31T12:59:45;6.20;;;3.93;;
21593;SDS011;10959;51.328;7.322;2022-10-31T13:02:16;6.88;;;3.63;;
21593;SDS011;10959;51.328;7.322;2022-10-31T13:04:49;8.68;;;4.20;;
21593;SDS011;10959;51.328;7.322;2022-10-31T13:07:19;10.77;;;4.50;;
21593;SDS011;10959;51.328;7.322;2022-10-31T13:09:53;8.30;;;4.20;;
21593;SDS011;10959;51.328;7.322;2022-10-31T13:12:26;9.23;;;4.23;;
21593;SDS011;10959;51.328;7.322;2022-10-31T13:14:56;7.63;;;3.87;;
21593;SDS011;10959;51.328;7.322;2022-10-31T13:17:26;6.50;;;3.57;;
21593;SDS011;10959;51.328;7.322;2022-10-31T13:19:58;9.43;;;3.93;;
21593;SDS011;10959;51.328;7.322;2022-10-31T13:22:39;6.50;;;4.00;;
21593;SDS011;10959;51.328;7.322;2022-10-31T13:25:10;7.87;;;4.37;;
21593;SDS011;10959;51.328;7.322;2022-10-31T13:27:44;10.13;;;4.33;;
21593;SDS011;10959;51.328;7.322;2022-10-31T13:30:14;10.20;;;4.20;;
21593;SDS011;10959;51.328;7.322;2022-10-31T13:32:44;7.87;;;3.77;;
21593;SDS011;10959;51.328;7.322;2022-10-31T13:35:15;9.83;;;4.47;;
21593;SDS011;10959;51.328;7.322;2022-10-31T13:37:46;9.30;;;4.10;;
21593;SDS011;10959;51.328;7.322;2022-10-31T13:40:22;10.23;;;4.47;;
21593;SDS011;10959;51.328;7.322;2022-10-31T13:43:02;8.17;;;4.30;;
21593;SDS011;10959;51.328;7.322;2022-10-31T13:45:36;7.97;;;4.30;;
21593;SDS011;10959;51.328;7.322;2022-10-31T13:48:18;5.57;;;3.53;;
21593;SDS011;10959;51.328;7.322;2022-10-31T13:50:59;8.30;;;4.20;;
21593;SDS011;10959;51.328;7.322;2022-10-31T13:53:35;8.37;;;3.90;;
21593;SDS011;10959;51.328;7.322;2022-10-31T13:56:03;7.90;;;4.47;;
21593;SDS011;10959;51.328;7.322;2022-10-31T13:58:41;8.80;;;4.10;;
21593;SDS011;10959;51.328;7.322;2022-10-31T14:01:19;8.73;;;4.70;;
21593;SDS011;10959;51.328;7.322;2022-10-31T14:03:47;10.07;;;4.70;;
21593;SDS011;10959;51.328;7.322;2022-10-31T14:06:34;9.10;;;4.90;;
21593;SDS011;10959;51.328;7.322;2022-10-31T14:09:02;8.17;;;4.27;;
21593;SDS011;10959;51.328;7.322;2022-10-31T14:11:29;7.53;;;4.30;;
21593;SDS011;10959;51.328;7.322;2022-10-31T14:13:57;10.10;;;4.63;;
21593;SDS011;10959;51.328;7.322;2022-10-31T14:16:25;10.43;;;4.90;;
21593;SDS011;10959;51.328;7.322;2022-10-31T14:18:57;6.30;;;4.33;;
21593;SDS011;10959;51.328;7.322;2022-10-31T14:21:26;8.33;;;4.57;;
21593;SDS011;10959;51.328;7.322;2022-10-31T14:23:54;8.30;;;3.70;;
21593;SDS011;10959;51.328;7.322;2022-10-31T14:26:33;7.17;;;4.10;;
21593;SDS011;10959;51.328;7.322;2022-10-31T14:29:20;8.70;;;4.50;;
21593;SDS011;10959;51.328;7.322;2022-10-31T14:31:53;10.30;;;4.60;;
21593;SDS011;10959;51.328;7.322;2022-10-31T14:34:23;10.43;;;4.40;;
21593;SDS011;10959;51.328;7.322;2022-10-31T14:37:00;8.67;;;4.47;;
21593;SDS011;10959;51.328;7.322;2022-10-31T14:39:38;7.50;;;4.47;;
21593;SDS011;10959;51.328;7.322;2022-10-31T14:42:19;9.80;;;4.37;;
21593;SDS011;10959;51.328;7.322;2022-10-31T14:45:05;9.20;;;4.50;;
21593;SDS011;10959;51.328;7.322;2022-10-31T14:47:45;11.90;;;4.00;;
21593;SDS011;10959;51.328;7.322;2022-10-31T14:50:22;7.70;;;4.40;;
21593;SDS011;10959;51.328;7.322;2022-10-31T14:52:56;10.07;;;4.40;;
21593;SDS011;10959;51.328;7.322;2022-10-31T14:55:26;6.93;;;3.87;;
21593;SDS011;10959;51.328;7.322;2022-10-31T14:57:54;5.87;;;3.83;;